Walworth, United Kingdom
Current Conditions -  °F | °C
As of 4:50 PM on Thursday 30 Oct 2014 (Local Time) from EGLC Reporting Station
Few Clouds Few Clouds  
Wind Chill: 64°   Ceiling: Unl
Heat Index: 64°   Visibility: 6mi
Dew Point: 57°   Wind: 5mph
Humidity: 77%   Direction: 150°SSE
Pressure: 30.06"   Gusts: NA
Location:  51.49°N, 0.09°W
Report Text: EGLC 301650Z 15004KT 9999 FEW016 18/14 Q1018
Loading
Personal Weather Stations






























Interactive Weather Map
Tropical Storm Tracking
New forecast layout! Learn more

10-Day Weather Forecast

Advertisements
Track Severe Weather on mobile